Bookmark and Share
Track history (hours):
 

Royal Pacific

More information available from US FCC via Universal Licensing System and Coast Guard Vessel Documentation Center.

Last reported at 2013-Apr-16 17:24 UTC. Time now 2014-Apr-18 13:20 UTC.
Position N 50°16' W 125°24'.
Warning: this ship's position is years out of date!

Length 30 m.

MMSI: 367588000.

NotesDate/timePositionNaut miles runAvg speedWind from/ knotsBaromVisibWave heightAir tempDewpointWater temp
2013-Apr-16 17:24N 50°16' W 125°24'9 9.6
2013-Apr-16 16:30N 50°08' W 125°21'10 7.9
2013-Apr-16 15:16N 49°60' W 125°12'6 8.8
2013-Apr-16 14:33N 49°55' W 125°05'10 9.6
2013-Apr-16 13:29N 49°48' W 124°54'9 9.2
2013-Apr-16 12:33N 49°42' W 124°45'9 9.4
2013-Apr-16 11:33N 49°35' W 124°35'9 9.3
2013-Apr-16 10:33N 49°29' W 124°24'9 9.3
2013-Apr-16 09:33N 49°24' W 124°12'9 9.4
2013-Apr-16 08:33N 49°21' W 123°58'9 9.2
2013-Apr-16 07:33N 49°17' W 123°46'10 9.6
2013-Apr-16 06:33N 49°11' W 123°34'20 9.9
2013-Apr-16 04:33N 48°58' W 123°11'10 9.8
2013-Apr-16 03:33N 48°52' W 122°60'10 9.7
2013-Apr-16 02:33N 48°46' W 122°48'10 9.6
2013-Apr-16 01:33N 48°37' W 122°45'1110.8
2013-Apr-16 00:33N 48°26' W 122°44'9 9.0
2013-Apr-15 23:33N 48°17' W 122°47'8 7.9
2013-Apr-15 22:33N 48°10' W 122°44'10 9.5
2013-Apr-15 21:33N 48°01' W 122°37'10 9.7
2013-Apr-15 20:33N 47°53' W 122°28'9 9.4
2013-Apr-15 19:33N 47°44' W 122°26'5 4.6
2013-Apr-15 18:33N 47°40' W 122°23'1 0.7
2013-Apr-15 17:33N 47°39' W 122°23'0 0.0
2013-Apr-15 16:34N 47°39' W 122°23'0 0.0
2013-Apr-15 15:33N 47°39' W 122°23'0 0.0
2013-Apr-15 14:33N 47°39' W 122°23'0 0.0
2013-Apr-15 13:33N 47°39' W 122°23'0 0.0
2013-Apr-15 12:33N 47°39' W 122°23'0 0.0
2013-Apr-15 11:33N 47°39' W 122°23'0 0.0
2013-Apr-15 10:33N 47°39' W 122°23'0 0.0
2013-Apr-15 09:34N 47°39' W 122°23'0 0.0
2013-Apr-15 08:33N 47°39' W 122°23'0 0.0
2013-Apr-15 07:33N 47°39' W 122°23'0 0.0
2013-Apr-15 06:33N 47°39' W 122°23'0 0.0
2013-Apr-15 04:33N 47°39' W 122°23'0 0.0
2013-Apr-15 03:33N 47°39' W 122°23'0 0.0
2013-Apr-15 02:33N 47°39' W 122°23'0 0.0
2013-Apr-15 01:34N 47°39' W 122°23'0 0.0
2013-Apr-15 00:33N 47°39' W 122°23'0 0.0
2013-Apr-14 23:33N 47°39' W 122°23'0 0.0
2013-Apr-14 22:33N 47°39' W 122°23'0 0.0
2013-Apr-14 21:33N 47°39' W 122°23'0 0.0
2013-Apr-14 20:34N 47°39' W 122°23'0 0.0
2013-Apr-14 19:33N 47°39' W 122°23'0 0.0
2013-Apr-14 18:33N 47°39' W 122°23'0 0.0
2013-Apr-14 17:33N 47°39' W 122°23'0 0.0
2013-Apr-14 16:33N 47°39' W 122°23'0 0.0
2013-Apr-14 15:34N 47°39' W 122°23'0 0.0
2013-Apr-14 14:33N 47°39' W 122°23'0 0.0
2013-Apr-14 13:34N 47°39' W 122°23'0 0.0
2013-Apr-14 12:34N 47°39' W 122°23'0 0.0
2013-Apr-14 11:33N 47°39' W 122°23'0 0.0
2013-Apr-14 10:33N 47°39' W 122°23'0 0.0
2013-Apr-14 09:33N 47°39' W 122°23'0 0.0
2013-Apr-14 08:33N 47°39' W 122°23'0 0.0
2013-Apr-14 07:34N 47°39' W 122°23'0 0.0
2013-Apr-14 06:33N 47°39' W 122°23'0 0.0
2013-Apr-14 04:34N 47°39' W 122°23'0 0.0
2013-Apr-14 03:34N 47°39' W 122°23'0 0.0
2013-Apr-14 02:33N 47°39' W 122°23'0 0.0
2013-Apr-14 01:34N 47°39' W 122°23'0 0.0
2013-Apr-14 00:33N 47°39' W 122°23'0 0.0
2013-Apr-13 23:33N 47°39' W 122°23'0 0.0
2013-Apr-13 22:33N 47°39' W 122°23'0 0.0
2013-Apr-13 21:33N 47°39' W 122°23'0 0.0
2013-Apr-13 20:15N 47°39' W 122°23'0 0.0
2013-Apr-13 19:31N 47°39' W 122°23'0 0.0
2013-Apr-13 18:32N 47°39' W 122°23'0 0.0
2013-Apr-13 17:33N 47°39' W 122°23'0 0.0
2013-Apr-13 16:32N 47°39' W 122°23'0 0.0
2013-Apr-13 15:32N 47°39' W 122°23'0 0.0
2013-Apr-13 14:29N 47°39' W 122°23'0 0.0
2013-Apr-13 13:29N 47°39' W 122°23'0 0.0
2013-Apr-13 12:30N 47°39' W 122°23'0 0.0
2013-Apr-13 11:33N 47°39' W 122°23'0 0.0
2013-Apr-13 10:32N 47°39' W 122°23'0 0.0
2013-Apr-13 09:33N 47°39' W 122°23'0 0.0
2013-Apr-13 08:30N 47°39' W 122°23'0 0.0
2013-Apr-13 07:28N 47°39' W 122°23'0 0.0
2013-Apr-13 06:33N 47°39' W 122°23'0 0.0
2013-Apr-13 04:33N 47°39' W 122°23'0 0.0
2013-Apr-13 03:33N 47°39' W 122°23'0 0.0
2013-Apr-13 02:33N 47°39' W 122°23'0 0.0
2013-Apr-13 01:33N 47°39' W 122°23'0 0.0
2013-Apr-13 00:32N 47°39' W 122°23'0 0.0
2013-Apr-12 23:31N 47°39' W 122°23'0 0.0
2013-Apr-12 22:33N 47°39' W 122°23'0 0.0
2013-Apr-12 21:32N 47°39' W 122°23'0 0.0
2013-Apr-12 20:33N 47°39' W 122°23'1 0.8
2013-Apr-12 19:33N 47°40' W 122°23'0 0.0
2013-Apr-12 18:33N 47°40' W 122°23'0 0.0
2013-Apr-12 17:33N 47°40' W 122°23'0 0.3
2013-Apr-12 16:33N 47°40' W 122°23'1 0.5
2013-Apr-12 15:33N 47°39' W 122°23'0 0.0
2013-Apr-12 14:34N 47°39' W 122°23'0 0.0
2013-Apr-12 13:33N 47°39' W 122°23'0 0.0
2013-Apr-12 12:33N 47°39' W 122°23'0 0.0
2013-Apr-12 11:34N 47°39' W 122°23'0 0.0
2013-Apr-12 10:34N 47°39' W 122°23'0 0.0
2013-Apr-12 09:34N 47°39' W 122°23'0 0.0
2013-Apr-12 08:34N 47°39' W 122°23'0 0.0
2013-Apr-12 07:33N 47°39' W 122°23'0 0.0
2013-Apr-12 06:34N 47°39' W 122°23'0 0.0
2013-Apr-12 04:34N 47°39' W 122°23'0 0.0
2013-Apr-12 03:34N 47°39' W 122°23'0 0.0
2013-Apr-12 02:34N 47°39' W 122°23'0 0.0
2013-Apr-12 01:34N 47°39' W 122°23'0 0.0
2013-Apr-12 00:33N 47°39' W 122°23'0 0.0
2013-Apr-11 23:33N 47°39' W 122°23'0 0.0
2013-Apr-11 22:33N 47°39' W 122°23'0 0.0
2013-Apr-11 21:33N 47°39' W 122°23'0 0.0
2013-Apr-11 20:33N 47°39' W 122°23'0 0.0
2013-Apr-11 19:33N 47°39' W 122°23'0 0.0
2013-Apr-11 18:34N 47°39' W 122°23'0 0.0
2013-Apr-11 17:33N 47°39' W 122°23'0 0.0
2013-Apr-11 16:33N 47°39' W 122°23'0 0.0
2013-Apr-11 15:33N 47°39' W 122°23'0 0.0
2013-Apr-11 14:33N 47°39' W 122°23'0 0.0
2013-Apr-11 13:33N 47°39' W 122°23'0 0.0
2013-Apr-11 12:33N 47°39' W 122°23'0 0.0
2013-Apr-11 11:33N 47°39' W 122°23'0 0.0
2013-Apr-11 10:33N 47°39' W 122°23'0 0.0
2013-Apr-11 09:33N 47°39' W 122°23'0 0.0
2013-Apr-11 08:33N 47°39' W 122°23'0 0.0
2013-Apr-11 07:33N 47°39' W 122°23'0 0.0
2013-Apr-11 06:33N 47°39' W 122°23'0 0.0
2013-Apr-11 04:33N 47°39' W 122°23'0 0.0
2013-Apr-11 03:33N 47°39' W 122°23'0 0.0
2013-Apr-11 02:33N 47°39' W 122°23'0 0.0
2013-Apr-11 01:33N 47°39' W 122°23'0 0.0
2013-Apr-11 00:33N 47°39' W 122°23'0 0.0
2013-Apr-10 23:33N 47°39' W 122°23'0 0.0
2013-Apr-10 22:33N 47°39' W 122°23'0 0.0
2013-Apr-10 21:33N 47°39' W 122°23'0 0.0
2013-Apr-10 20:33N 47°39' W 122°23'0 0.0
2013-Apr-10 19:33N 47°39' W 122°23'0 0.0
2013-Apr-10 18:33N 47°39' W 122°23'0 0.0
2013-Apr-10 17:33N 47°39' W 122°23'0 0.0
2013-Apr-10 16:33N 47°39' W 122°23'0 0.0
2013-Apr-10 15:33N 47°39' W 122°23'0 0.0
2013-Apr-10 14:33N 47°39' W 122°23'0 0.0
2013-Apr-10 13:33N 47°39' W 122°23'0 0.0
2013-Apr-10 12:33N 47°39' W 122°23'0 0.0
2013-Apr-10 11:33N 47°39' W 122°23'0 0.0
2013-Apr-10 10:33N 47°39' W 122°23'0 0.0
2013-Apr-10 09:33N 47°39' W 122°23'0 0.0
2013-Apr-10 08:33N 47°39' W 122°23'0 0.0
2013-Apr-10 07:33N 47°39' W 122°23'0 0.0
2013-Apr-10 06:33N 47°39' W 122°23'0 0.0
2013-Apr-10 04:33N 47°39' W 122°23'0 0.0
2013-Apr-10 03:33N 47°39' W 122°23'0 0.0
2013-Apr-10 02:33N 47°39' W 122°23'0 0.0
2013-Apr-10 01:33N 47°39' W 122°23'0 0.0
2013-Apr-10 00:33N 47°39' W 122°23'0 0.0
2013-Apr-09 23:33N 47°39' W 122°23'0 0.0
2013-Apr-09 22:33N 47°39' W 122°23'0 0.0
2013-Apr-09 21:33N 47°39' W 122°23'0 0.0
2013-Apr-09 20:33N 47°39' W 122°23'0 0.0
2013-Apr-09 19:33N 47°39' W 122°23'0 0.0
2013-Apr-09 18:33N 47°39' W 122°23'0 0.0
2013-Apr-09 17:33N 47°39' W 122°23'0 0.0
2013-Apr-09 16:33N 47°39' W 122°23'0 0.0
2013-Apr-09 15:33N 47°39' W 122°23'  

Dump ship's entire track history

sailing weather and tide predictions

Royal Pacific — WY7357 — position and weather